Attica, New York
Current Conditions -  °F | °C
As of 9:20 PM on Tuesday 21 Oct 2014 (Local Time) from KBUF Reporting Station
Drizzle Drizzle  
Wind Chill: 40°   Ceiling: 600
Heat Index: 46°   Visibility: 2.5mi
Dew Point: 44°   Wind: 13mph
Humidity: 93%   Direction: 20°NNE
Pressure: 30.06"   Gusts: 17mph
Location:  42.86°N, 78.28°W
Report Text: KBUF 220120Z 02011G15KT 2 1/2SM -DZ BR OVC006 08/07 A3006 RMK AO2 CIG 004V009 P0000 T00780067
Loading
Personal Weather Stations






























Interactive Weather Map
Tropical Storm Tracking
New forecast layout! Learn more

10-Day Weather Forecast

Advertisements
Track Severe Weather on mobile